createdAt,value
2019-02-12T00:00:32.726Z,53679.64
2019-02-12T00:03:03.286Z,53700.83
2019-02-12T00:05:34.596Z,53673.87
2019-02-12T00:08:05.443Z,53658.46
2019-02-12T00:10:36.199Z,53685.42
2019-02-12T00:13:06.952Z,53652.68
2019-02-12T00:15:38.082Z,53629.57
2019-02-12T00:18:08.703Z,53600.68
2019-02-12T00:20:39.413Z,53593.94
2019-02-12T00:23:10.051Z,53583.35
2019-02-12T00:25:41.090Z,53619.94
2019-02-12T00:28:11.567Z,53584.31
2019-02-12T00:30:42.103Z,53550.61
2019-02-12T00:33:12.572Z,53529.43
2019-02-12T00:35:43.603Z,53493.80
2019-02-12T00:38:14.454Z,53535.20
2019-02-12T00:40:44.934Z,53510.16
2019-02-12T00:43:15.595Z,53495.72
2019-02-12T00:45:46.436Z,53466.84
2019-02-12T00:48:17.254Z,53440.84
2019-02-12T00:50:47.897Z,53427.36
2019-02-12T00:53:18.796Z,53415.80
2019-02-12T00:55:49.325Z,53384.02
2019-02-12T00:58:20.011Z,53383.06
2019-02-12T01:00:50.829Z,53389.80
2019-02-12T01:03:21.282Z,53377.29
2019-02-12T01:05:51.915Z,53376.32
2019-02-12T01:08:22.363Z,53377.29
2019-02-12T01:10:52.908Z,53343.58
2019-02-12T01:13:23.501Z,53310.85
2019-02-12T01:15:54.110Z,53301.22
2019-02-12T01:18:24.639Z,53288.70
2019-02-12T01:20:55.118Z,53276.18
2019-02-12T01:23:25.802Z,53255.96
2019-02-12T01:25:56.364Z,53245.37
2019-02-12T01:28:27.069Z,53203.01
2019-02-12T01:30:57.624Z,53239.59
2019-02-12T01:33:28.141Z,53237.67
2019-02-12T01:35:58.680Z,53207.82
2019-02-12T01:38:29.565Z,53205.90
2019-02-12T01:41:00.030Z,53198.20
2019-02-12T01:43:30.558Z,53156.79
2019-02-12T01:46:01.020Z,53197.23
2019-02-12T01:48:31.660Z,53183.75
2019-02-12T01:51:02.130Z,53205.90
2019-02-12T01:53:32.813Z,53228.04
2019-02-12T01:56:03.308Z,53193.38
2019-02-12T01:58:34.380Z,53211.67
2019-02-12T02:01:05.023Z,53194.34
2019-02-12T02:03:35.604Z,53186.64
2019-02-12T02:06:06.487Z,53154.87
2019-02-12T02:08:37.145Z,53176.05
2019-02-12T02:11:07.681Z,53164.50
2019-02-12T02:13:38.327Z,53165.46
2019-02-12T02:16:08.805Z,53151.98
2019-02-12T02:18:39.318Z,53159.68
2019-02-12T02:21:10.253Z,53117.32
2019-02-12T02:23:41.119Z,53116.36
2019-02-12T02:26:11.641Z,53103.84
2019-02-12T02:28:42.184Z,53066.29
2019-02-12T02:31:12.637Z,53082.66
2019-02-12T02:33:43.263Z,53057.62
2019-02-12T02:36:13.782Z,53089.39
2019-02-12T02:38:44.431Z,53064.36
2019-02-12T02:41:15.241Z,53093.25
2019-02-12T02:43:46.767Z,53073.99
2019-02-12T02:46:17.304Z,53097.10
2019-02-12T02:48:48.187Z,53132.72
2019-02-12T02:51:18.647Z,53138.50
2019-02-12T02:53:49.272Z,53157.76
2019-02-12T02:56:19.804Z,53190.49
2019-02-12T02:58:50.725Z,53180.86
2019-02-12T03:01:21.615Z,53129.84
2019-02-12T03:03:52.172Z,53153.91
2019-02-12T03:06:22.635Z,53177.01
2019-02-12T03:08:53.592Z,53157.76
2019-02-12T03:11:24.128Z,53133.68
2019-02-12T03:13:54.734Z,53184.71
2019-02-12T03:16:25.596Z,53114.43
2019-02-12T03:18:56.191Z,53140.43
2019-02-12T03:21:26.959Z,53110.58
2019-02-12T03:23:57.548Z,53052.81
2019-02-12T03:26:28.087Z,53046.07
2019-02-12T03:28:58.854Z,53006.59
2019-02-12T03:31:29.372Z,52979.64
2019-02-12T03:34:00.134Z,52957.50
2019-02-12T03:36:30.630Z,52927.65
2019-02-12T03:39:01.212Z,52817.89
2019-02-12T03:41:32.109Z,52842.93
2019-02-12T03:44:02.681Z,52813.09
2019-02-12T03:46:33.544Z,52759.17
2019-02-12T03:49:04.077Z,52755.32
2019-02-12T03:51:34.929Z,52760.13
2019-02-12T03:54:05.780Z,52745.69
2019-02-12T03:56:36.323Z,52796.72
2019-02-12T03:59:06.924Z,52784.20
2019-02-12T04:01:37.809Z,52798.64
2019-02-12T04:04:08.900Z,52831.38
2019-02-12T04:06:39.578Z,52859.29
2019-02-12T04:09:10.111Z,52845.82
2019-02-12T04:11:40.621Z,52886.25
2019-02-12T04:14:11.191Z,52882.40
2019-02-12T04:16:41.732Z,52846.78
2019-02-12T04:19:12.580Z,52884.32
2019-02-12T04:21:43.144Z,52862.18
2019-02-12T04:24:13.734Z,52851.59
2019-02-12T04:26:44.265Z,52884.32
2019-02-12T04:29:14.792Z,52849.67
2019-02-12T04:31:45.321Z,52862.18
2019-02-12T04:34:15.838Z,52842.93
2019-02-12T04:36:46.345Z,52832.34
2019-02-12T04:39:18.091Z,52829.45
2019-02-12T04:41:48.992Z,52815.01
2019-02-12T04:44:20.546Z,52791.90
2019-02-12T04:46:51.013Z,52826.56
2019-02-12T04:49:21.543Z,52833.30
2019-02-12T04:51:52.111Z,52849.67
2019-02-12T04:54:22.676Z,52802.49
2019-02-12T04:56:53.224Z,52831.38
2019-02-12T04:59:23.841Z,52850.63
2019-02-12T05:01:54.371Z,52840.04
2019-02-12T05:04:25.626Z,52812.12
2019-02-12T05:06:56.155Z,52832.34
2019-02-12T05:09:26.960Z,52836.19
2019-02-12T05:12:03.903Z,52814.05
2019-02-12T05:14:34.422Z,52795.75
2019-02-12T05:17:05.030Z,52834.26
2019-02-12T05:19:35.904Z,52812.12
2019-02-12T05:22:06.525Z,52815.97
2019-02-12T05:24:37.048Z,52831.38
2019-02-12T05:27:07.869Z,52820.79
2019-02-12T05:29:38.411Z,52857.37
2019-02-12T05:32:09.039Z,52854.48
2019-02-12T05:34:39.557Z,52904.54
2019-02-12T05:37:10.012Z,52918.98
2019-02-12T05:39:40.870Z,52900.69
2019-02-12T05:42:11.338Z,52904.54
2019-02-12T05:44:41.885Z,52893.95
2019-02-12T05:47:12.443Z,52900.69
2019-02-12T05:49:42.934Z,52917.06
2019-02-12T05:52:13.463Z,52918.02
2019-02-12T05:54:44.003Z,52931.50
2019-02-12T05:57:14.535Z,52982.53
2019-02-12T05:59:47.031Z,52959.42
2019-02-12T06:02:17.299Z,52969.05
2019-02-12T06:04:47.745Z,52941.13
2019-02-12T06:07:18.630Z,52938.24
2019-02-12T06:09:49.170Z,52955.57
2019-02-12T06:12:20.416Z,52976.75
2019-02-12T06:14:51.245Z,52967.12
2019-02-12T06:17:22.188Z,52986.37
2019-02-12T06:19:52.906Z,52960.38
2019-02-12T06:22:23.483Z,53008.52
2019-02-12T06:24:54.827Z,52958.46
2019-02-12T06:27:25.699Z,52974.82
2019-02-12T06:29:56.228Z,52974.82
2019-02-12T06:32:26.774Z,52983.49
2019-02-12T06:34:57.705Z,52948.83
2019-02-12T06:37:28.198Z,52987.34
2019-02-12T06:39:59.467Z,52978.68
2019-02-12T06:42:30.016Z,52959.42
2019-02-12T06:45:00.580Z,52959.42
2019-02-12T06:47:31.118Z,52936.31
2019-02-12T06:50:02.243Z,52942.09
2019-02-12T06:52:32.795Z,52962.31
2019-02-12T06:55:03.731Z,52935.35
2019-02-12T06:57:34.250Z,52960.38
2019-02-12T07:00:05.250Z,52944.02
2019-02-12T07:03:14.191Z,52924.76
2019-02-12T07:06:22.905Z,52930.54
2019-02-12T07:09:38.640Z,52916.10
2019-02-12T07:13:03.659Z,52915.13
2019-02-12T07:16:10.214Z,52918.98
2019-02-12T07:19:43.767Z,52918.02
2019-02-12T07:23:23.373Z,52942.09
2019-02-12T07:26:43.979Z,52883.36
2019-02-12T07:30:13.180Z,52909.36
2019-02-12T07:33:53.848Z,52921.87
2019-02-12T07:37:19.801Z,52925.72
2019-02-12T07:40:26.221Z,52894.91
2019-02-12T07:43:42.622Z,52923.80
2019-02-12T07:47:12.435Z,52893.95
2019-02-12T07:50:41.416Z,52912.25
2019-02-12T07:54:09.228Z,52923.80
2019-02-12T07:57:20.218Z,52930.54
2019-02-12T08:00:42.044Z,52922.84
2019-02-12T08:04:15.826Z,52903.58
2019-02-12T08:08:15.998Z,52965.20
2019-02-12T08:12:17.321Z,52944.02
2019-02-12T08:15:56.092Z,52931.50
2019-02-12T08:19:03.226Z,52907.43
2019-02-12T08:22:10.730Z,52903.58
2019-02-12T08:25:41.596Z,52919.95
2019-02-12T08:28:37.076Z,52885.29
2019-02-12T08:32:11.133Z,52874.70
2019-02-12T08:35:29.150Z,52870.85
2019-02-12T08:39:01.410Z,52921.87
2019-02-12T08:42:35.532Z,52903.58
2019-02-12T08:46:03.423Z,52880.48
2019-02-12T08:49:35.770Z,52886.25
2019-02-12T08:52:58.803Z,52801.53
2019-02-12T08:56:44.530Z,52852.55
2019-02-12T08:59:53.357Z,52837.15
2019-02-12T09:03:01.296Z,52878.55
2019-02-12T09:06:00.343Z,52868.92
2019-02-12T09:09:12.362Z,52893.95
2019-02-12T09:12:39.575Z,52950.75
2019-02-12T09:16:12.210Z,52999.86
2019-02-12T09:19:51.607Z,53037.41
2019-02-12T09:22:50.261Z,53065.33
2019-02-12T09:26:10.666Z,53050.88
2019-02-12T09:29:32.063Z,53033.55
2019-02-12T09:32:48.968Z,53047.03
2019-02-12T09:35:52.314Z,53030.66
2019-02-12T09:39:38.729Z,53025.85
2019-02-12T09:43:14.699Z,53016.22
2019-02-12T09:46:32.280Z,52978.68
2019-02-12T09:50:00.198Z,52916.10
2019-02-12T09:53:41.113Z,52950.75
2019-02-12T09:56:57.342Z,52912.25
2019-02-12T10:00:45.123Z,52851.59
2019-02-12T10:04:13.541Z,52893.95
2019-02-12T10:07:51.644Z,52886.25
2019-02-12T10:11:33.239Z,52880.48
2019-02-12T10:14:51.703Z,52880.48
2019-02-12T10:17:46.413Z,52896.84
2019-02-12T10:21:01.374Z,52837.15
2019-02-12T10:24:23.021Z,52867.00
2019-02-12T10:27:38.047Z,52841.96
2019-02-12T10:30:29.517Z,52788.05
2019-02-12T10:33:00.401Z,52766.87
2019-02-12T10:35:31.087Z,52761.10
2019-02-12T10:38:01.637Z,52782.28
2019-02-12T10:40:32.112Z,52731.25
2019-02-12T10:43:02.808Z,52720.66
2019-02-12T10:45:33.345Z,52682.16
2019-02-12T10:48:04.215Z,52725.48
2019-02-12T10:50:34.797Z,52648.46
2019-02-12T10:53:05.339Z,52666.75
2019-02-12T10:55:35.877Z,52649.43
2019-02-12T10:58:06.545Z,52612.84
2019-02-12T11:00:37.483Z,52624.39
2019-02-12T11:03:08.128Z,52598.40
2019-02-12T11:05:38.887Z,52570.48
2019-02-12T11:08:09.423Z,52529.09
2019-02-12T11:10:40.063Z,52512.73
2019-02-12T11:13:10.593Z,52483.85
2019-02-12T11:15:41.141Z,52381.81
2019-02-12T11:18:12.396Z,52325.98
2019-02-12T11:20:42.926Z,52319.24
2019-02-12T11:23:13.451Z,52272.07
2019-02-12T11:25:44.391Z,52233.57
2019-02-12T11:28:14.981Z,52158.50
2019-02-12T11:30:45.757Z,52113.26
2019-02-12T11:33:16.343Z,52032.41
2019-02-12T11:35:46.792Z,52133.47
2019-02-12T11:38:17.393Z,52220.10
2019-02-12T11:40:47.852Z,52287.48
2019-02-12T11:43:19.094Z,52330.79
2019-02-12T11:45:49.638Z,52391.44
2019-02-12T11:48:20.214Z,52397.21
2019-02-12T11:50:50.680Z,52396.25
2019-02-12T11:53:21.465Z,52408.76
2019-02-12T11:55:52.266Z,52412.61
2019-02-12T11:58:22.962Z,52289.40
2019-02-12T12:01:04.755Z,52271.11
2019-02-12T12:03:35.543Z,52288.44
2019-02-12T12:06:06.197Z,52218.17
2019-02-12T12:08:36.723Z,52202.77
2019-02-12T12:11:07.459Z,52219.14
2019-02-12T12:13:37.983Z,52290.37
2019-02-12T12:16:09.072Z,52253.79
2019-02-12T12:18:39.913Z,52279.78
2019-02-12T12:21:10.516Z,52338.50
2019-02-12T12:23:41.038Z,52345.23
2019-02-12T12:26:11.742Z,52424.16
2019-02-12T12:28:43.398Z,52421.28
2019-02-12T12:31:13.900Z,52443.42
2019-02-12T12:33:44.568Z,52429.94
2019-02-12T12:36:15.044Z,52476.15
2019-02-12T12:38:46.682Z,52460.75
2019-02-12T12:41:17.555Z,52521.39
2019-02-12T12:43:48.129Z,52519.46
2019-02-12T12:46:18.937Z,52539.68
2019-02-12T12:48:49.504Z,52528.13
2019-02-12T12:51:20.167Z,52609.95
2019-02-12T12:53:50.885Z,52637.87
2019-02-12T12:56:21.520Z,52688.89
2019-02-12T12:58:52.289Z,52689.86
2019-02-12T13:01:22.949Z,52673.49
2019-02-12T13:03:53.478Z,52667.71
2019-02-12T13:06:24.532Z,52678.30
2019-02-12T13:08:55.056Z,52693.71
2019-02-12T13:11:26.712Z,52707.19
2019-02-12T13:13:57.557Z,52691.78
2019-02-12T13:16:28.486Z,52734.14
2019-02-12T13:18:59.342Z,52734.14
2019-02-12T13:21:30.423Z,52720.66
2019-02-12T13:24:01.248Z,52728.37
2019-02-12T13:26:31.825Z,52715.85
2019-02-12T13:29:02.822Z,52720.66
2019-02-12T13:31:33.358Z,52718.74
2019-02-12T13:34:04.303Z,52743.77
2019-02-12T13:36:34.831Z,52736.07
2019-02-12T13:39:06.360Z,52718.74
2019-02-12T13:41:36.820Z,52731.25
2019-02-12T13:44:07.452Z,52711.04
2019-02-12T13:46:37.975Z,52729.33
2019-02-12T13:49:08.619Z,52738.95
2019-02-12T13:51:39.149Z,52765.91
2019-02-12T13:54:09.785Z,52774.57
2019-02-12T13:56:40.449Z,52758.21
2019-02-12T13:59:11.146Z,52761.10
2019-02-12T14:01:42.015Z,52740.88
2019-02-12T14:04:12.708Z,52751.47
2019-02-12T14:06:43.232Z,52699.48
2019-02-12T14:09:13.870Z,52745.69
2019-02-12T14:11:44.402Z,52736.07
2019-02-12T14:14:14.939Z,52731.25
2019-02-12T14:16:45.377Z,52719.70
2019-02-12T14:19:16.116Z,52735.11
2019-02-12T14:21:46.529Z,52763.98
2019-02-12T14:24:17.186Z,52751.47
2019-02-12T14:26:47.714Z,52728.37
2019-02-12T14:29:18.437Z,52732.21
2019-02-12T14:31:52.952Z,52771.69
2019-02-12T14:34:21.264Z,52696.60
2019-02-12T14:36:51.773Z,52712.00
2019-02-12T14:39:23.142Z,52755.32
2019-02-12T14:41:53.880Z,52719.70
2019-02-12T14:44:24.749Z,52711.04
2019-02-12T14:46:55.305Z,52701.41
2019-02-12T14:49:25.837Z,52707.19
2019-02-12T14:51:56.366Z,52735.11
2019-02-12T14:54:27.845Z,52777.46
2019-02-12T14:56:58.351Z,52830.41
2019-02-12T14:59:29.057Z,52859.29
2019-02-12T15:01:59.601Z,52867.96
2019-02-12T15:04:30.245Z,52834.26
2019-02-12T15:07:01.002Z,52878.55
2019-02-12T15:09:31.891Z,52873.73
2019-02-12T15:12:02.564Z,52837.15
2019-02-12T15:14:33.094Z,52853.52
2019-02-12T15:17:03.777Z,52802.49
2019-02-12T15:19:34.323Z,52809.23
2019-02-12T15:22:05.403Z,52764.95
2019-02-12T15:24:35.867Z,52736.07
2019-02-12T15:27:06.491Z,52734.14
2019-02-12T15:29:37.417Z,52725.48
2019-02-12T15:32:08.248Z,52692.75
2019-02-12T15:34:39.109Z,52706.22
2019-02-12T15:37:09.736Z,52688.89
2019-02-12T15:39:40.300Z,52634.98
2019-02-12T15:42:10.860Z,52652.31
2019-02-12T15:44:41.493Z,52633.06
2019-02-12T15:47:12.168Z,52626.32
2019-02-12T15:49:42.688Z,52584.93
2019-02-12T15:52:15.489Z,52562.79
2019-02-12T15:54:46.125Z,52566.64
2019-02-12T15:57:16.842Z,52579.15
2019-02-12T15:59:47.306Z,52551.23
2019-02-12T16:02:18.676Z,52541.61
2019-02-12T16:04:50.200Z,52502.14
2019-02-12T16:07:22.373Z,52543.53
2019-02-12T16:09:54.868Z,52527.17
2019-02-12T16:12:26.484Z,52505.03
2019-02-12T16:14:59.755Z,52539.68
2019-02-12T16:17:31.167Z,52492.51
2019-02-12T16:20:02.608Z,52482.89
2019-02-12T16:22:33.156Z,52492.51
2019-02-12T16:25:04.390Z,52531.02
2019-02-12T16:27:35.611Z,52497.32
2019-02-12T16:30:08.965Z,52535.83
2019-02-12T16:32:39.444Z,52523.32
2019-02-12T16:35:11.829Z,52523.32
2019-02-12T16:37:42.709Z,52485.77
2019-02-12T16:40:14.398Z,52551.23
2019-02-12T16:42:45.043Z,52567.60
2019-02-12T16:45:23.836Z,52551.23
2019-02-12T16:47:54.289Z,52555.08
2019-02-12T16:50:24.818Z,52558.93
2019-02-12T16:52:55.463Z,52568.56
2019-02-12T16:55:26.501Z,52597.44
2019-02-12T16:57:58.556Z,52588.78
2019-02-12T17:00:29.453Z,52612.84
2019-02-12T17:03:00.055Z,52608.99
2019-02-12T17:05:31.316Z,52596.48
2019-02-12T17:08:01.943Z,52634.02
2019-02-12T17:10:32.469Z,52649.43
2019-02-12T17:13:02.945Z,52605.14
2019-02-12T17:15:33.628Z,52607.07
2019-02-12T17:18:04.842Z,52633.06
2019-02-12T17:20:35.440Z,52635.95
2019-02-12T17:23:05.993Z,52624.39
2019-02-12T17:25:36.521Z,52630.17
2019-02-12T17:28:07.041Z,52679.27
2019-02-12T17:30:37.747Z,52655.20
2019-02-12T17:33:08.283Z,52651.35
2019-02-12T17:35:39.259Z,52651.35
2019-02-12T17:38:09.805Z,52668.68
2019-02-12T17:40:40.350Z,52649.43
2019-02-12T17:43:11.295Z,52650.39
2019-02-12T17:45:41.772Z,52668.68
2019-02-12T17:48:12.328Z,52644.61
2019-02-12T17:50:43.036Z,52649.43
2019-02-12T17:53:14.686Z,52626.32
2019-02-12T17:55:45.747Z,52665.79
2019-02-12T17:58:16.207Z,52649.43
2019-02-12T18:00:46.859Z,52678.30
2019-02-12T18:03:17.772Z,52689.86
2019-02-12T18:05:48.789Z,52672.53
2019-02-12T18:08:19.427Z,52657.12
2019-02-12T18:10:50.514Z,52663.86
2019-02-12T18:13:23.220Z,52644.61
2019-02-12T18:15:53.748Z,52661.94
2019-02-12T18:18:24.221Z,52634.02
2019-02-12T18:20:54.876Z,52640.76
2019-02-12T18:23:25.390Z,52616.69
2019-02-12T18:25:55.915Z,52656.16
2019-02-12T18:28:26.768Z,52686.01
2019-02-12T18:30:57.749Z,52618.62
2019-02-12T18:33:28.423Z,52635.95
2019-02-12T18:35:58.981Z,52620.55
2019-02-12T18:38:29.705Z,52643.65
2019-02-12T18:41:00.374Z,52647.50
2019-02-12T18:43:31.353Z,52647.50
2019-02-12T18:46:01.921Z,52663.86
2019-02-12T18:48:32.390Z,52616.69
2019-02-12T18:51:03.295Z,52639.80
2019-02-12T18:53:34.259Z,52636.91
2019-02-12T18:56:04.815Z,52633.06
2019-02-12T18:58:35.586Z,52611.88
2019-02-12T19:01:06.273Z,52596.48
2019-02-12T19:03:37.451Z,52598.40
2019-02-12T19:06:08.347Z,52619.58
2019-02-12T19:08:38.996Z,52601.29
2019-02-12T19:11:09.997Z,52634.98
2019-02-12T19:13:40.759Z,52599.37
2019-02-12T19:16:11.606Z,52568.56
2019-02-12T19:18:42.514Z,52628.25
2019-02-12T19:21:13.339Z,52622.47
2019-02-12T19:23:43.865Z,52630.17
2019-02-12T19:26:14.714Z,52602.25
2019-02-12T19:28:45.698Z,52605.14
2019-02-12T19:31:16.987Z,52598.40
2019-02-12T19:33:47.600Z,52591.66
2019-02-12T19:36:18.968Z,52583.00
2019-02-12T19:38:50.261Z,52582.04
2019-02-12T19:41:20.890Z,52571.45
2019-02-12T19:43:52.179Z,52583.96
2019-02-12T19:46:23.035Z,52561.82
2019-02-12T19:48:54.141Z,52586.85
2019-02-12T19:51:25.393Z,52579.15
2019-02-12T19:53:56.459Z,52611.88
2019-02-12T19:56:27.138Z,52589.74
2019-02-12T19:58:58.175Z,52620.55
2019-02-12T20:01:28.752Z,52599.37
2019-02-12T20:03:59.749Z,52560.86
2019-02-12T20:06:30.509Z,52597.44
2019-02-12T20:09:01.172Z,52584.93
2019-02-12T20:11:31.946Z,52584.93
2019-02-12T20:14:02.843Z,52538.72
2019-02-12T20:16:33.748Z,52558.93
2019-02-12T20:19:04.310Z,52582.04
2019-02-12T20:21:35.433Z,52574.34
2019-02-12T20:24:06.194Z,52580.11
2019-02-12T20:26:37.045Z,52602.25
2019-02-12T20:29:07.916Z,52501.18
2019-02-12T20:31:38.613Z,52527.17
2019-02-12T20:34:09.354Z,52518.50
2019-02-12T20:36:40.463Z,52516.58
2019-02-12T20:39:11.182Z,52530.05
2019-02-12T20:41:42.008Z,52549.31
2019-02-12T20:44:12.859Z,52533.91
2019-02-12T20:46:43.553Z,52525.24
2019-02-12T20:49:14.566Z,52499.25
2019-02-12T20:51:45.215Z,52512.73
2019-02-12T20:54:17.140Z,52520.43
2019-02-12T20:56:48.167Z,52519.46
2019-02-12T20:59:19.009Z,52480.96
2019-02-12T21:01:50.003Z,52481.92
2019-02-12T21:04:20.560Z,52512.73
2019-02-12T21:06:51.166Z,52538.72
2019-02-12T21:09:21.988Z,52515.62
2019-02-12T21:11:52.713Z,52519.46
2019-02-12T21:14:23.189Z,52558.93
2019-02-12T21:16:54.486Z,52539.68
2019-02-12T21:19:25.067Z,52514.65
2019-02-12T21:21:55.679Z,52514.65
2019-02-12T21:24:26.225Z,52532.94
2019-02-12T21:26:57.265Z,52495.40
2019-02-12T21:29:27.834Z,52516.58
2019-02-12T21:31:58.847Z,52491.55
2019-02-12T21:34:29.691Z,52526.20
2019-02-12T21:37:00.730Z,52512.73
2019-02-12T21:39:31.620Z,52510.80
2019-02-12T21:42:02.500Z,52500.21
2019-02-12T21:44:33.830Z,52487.70
2019-02-12T21:47:04.711Z,52521.39
2019-02-12T21:49:35.372Z,52517.54
2019-02-12T21:52:06.413Z,52495.40
2019-02-12T21:54:37.202Z,52495.40
2019-02-12T21:57:08.095Z,52443.42
2019-02-12T21:59:39.387Z,52480.96
2019-02-12T22:02:10.296Z,52483.85
2019-02-12T22:04:41.561Z,52508.87
2019-02-12T22:07:12.449Z,52485.77
2019-02-12T22:09:43.290Z,52480.96
2019-02-12T22:12:14.498Z,52462.67
2019-02-12T22:14:45.240Z,52510.80
2019-02-12T22:17:16.085Z,52564.71
2019-02-12T22:19:47.427Z,52529.09
2019-02-12T22:22:17.990Z,52483.85
2019-02-12T22:24:48.951Z,52549.31
2019-02-12T22:27:19.900Z,52542.57
2019-02-12T22:29:50.492Z,52539.68
2019-02-12T22:32:21.439Z,52572.41
2019-02-12T22:34:52.049Z,52504.07
2019-02-12T22:37:23.045Z,52557.01
2019-02-12T22:39:54.316Z,52566.64
2019-02-12T22:42:25.166Z,52582.04
2019-02-12T22:44:55.980Z,52582.04
2019-02-12T22:47:26.753Z,52574.34
2019-02-12T22:49:57.870Z,52541.61
2019-02-12T22:52:28.619Z,52564.71
2019-02-12T22:54:59.409Z,52583.00
2019-02-12T22:57:30.462Z,52577.22
2019-02-12T23:00:02.005Z,52556.05
2019-02-12T23:02:32.800Z,52568.56
2019-02-12T23:05:03.599Z,52505.99
2019-02-12T23:07:34.219Z,52585.89
2019-02-12T23:10:05.322Z,52582.04
2019-02-12T23:12:35.799Z,52607.07
2019-02-12T23:15:08.053Z,52606.11
2019-02-12T23:17:38.526Z,52583.00
2019-02-12T23:20:09.087Z,52620.55
2019-02-12T23:22:39.860Z,52602.25
2019-02-12T23:25:10.459Z,52634.02
2019-02-12T23:27:40.966Z,52629.21
2019-02-12T23:30:11.547Z,52656.16
2019-02-12T23:32:42.436Z,52670.60
2019-02-12T23:35:12.974Z,52634.98
2019-02-12T23:37:43.696Z,52646.54
2019-02-12T23:40:14.253Z,52641.72
2019-02-12T23:42:45.159Z,52625.36
2019-02-12T23:45:15.937Z,52665.79
2019-02-12T23:47:46.391Z,52684.08
2019-02-12T23:50:16.836Z,52667.71
2019-02-12T23:52:47.432Z,52647.50
2019-02-12T23:55:17.954Z,52646.54
2019-02-12T23:57:48.523Z,52682.16
